createdAt,value
2019-05-25T00:00:38.607Z,8.55
2019-05-25T00:01:45.444Z,7.17
2019-05-25T00:02:51.809Z,7.45
2019-05-25T00:03:58.761Z,7.25
2019-05-25T00:05:05.164Z,7.90
2019-05-25T00:06:12.185Z,7.78
2019-05-25T00:07:18.508Z,7.53
2019-05-25T00:08:26.696Z,7.62
2019-05-25T00:09:32.862Z,7.97
2019-05-25T00:10:39.795Z,7.55
2019-05-25T00:11:46.076Z,7.83
2019-05-25T00:12:52.894Z,7.17
2019-05-25T00:13:59.333Z,7.83
2019-05-25T00:15:06.620Z,7.42
2019-05-25T00:16:12.886Z,8.13
2019-05-25T00:17:19.835Z,7.75
2019-05-25T00:18:26.299Z,7.10
2019-05-25T00:19:33.125Z,7.67
2019-05-25T00:20:39.467Z,7.30
2019-05-25T00:21:46.412Z,7.37
2019-05-25T00:22:52.359Z,7.78
2019-05-25T00:24:11.634Z,7.55
2019-05-25T00:25:08.182Z,7.15
2019-05-25T00:26:15.133Z,7.85
2019-05-25T00:27:21.668Z,7.65
2019-05-25T00:28:28.446Z,7.87
2019-05-25T00:29:34.780Z,8.20
2019-05-25T00:30:41.804Z,7.80
2019-05-25T00:31:48.206Z,8.18
2019-05-25T00:32:55.167Z,8.18
2019-05-25T00:34:01.464Z,8.40
2019-05-25T00:35:08.349Z,8.20
2019-05-25T00:36:14.747Z,7.53
2019-05-25T00:37:21.744Z,7.95
2019-05-25T00:38:28.204Z,8.10
2019-05-25T00:39:34.970Z,8.45
2019-05-25T00:40:41.355Z,8.70
2019-05-25T00:41:48.424Z,8.88
2019-05-25T00:42:54.766Z,8.30
2019-05-25T00:44:01.619Z,8.80
2019-05-25T00:45:08.012Z,8.60
2019-05-25T00:46:14.955Z,7.70
2019-05-25T00:47:21.376Z,8.63
2019-05-25T00:48:28.254Z,8.33
2019-05-25T00:49:34.803Z,8.05
2019-05-25T00:50:41.588Z,8.75
2019-05-25T00:51:47.976Z,8.48
2019-05-25T00:52:54.997Z,8.43
2019-05-25T00:54:01.252Z,8.18
2019-05-25T00:55:08.755Z,8.53
2019-05-25T00:56:15.103Z,8.58
2019-05-25T00:57:21.750Z,8.40
2019-05-25T00:58:27.758Z,8.50
2019-05-25T00:59:34.511Z,8.80
2019-05-25T01:00:41.009Z,8.20
2019-05-25T01:01:47.835Z,8.73
2019-05-25T01:02:54.054Z,9.15
2019-05-25T01:04:00.978Z,9.75
2019-05-25T01:05:07.232Z,9.13
2019-05-25T01:06:14.042Z,8.65
2019-05-25T01:07:20.415Z,8.48
2019-05-25T01:08:27.485Z,8.80
2019-05-25T01:09:33.701Z,8.70
2019-05-25T01:10:40.554Z,8.88
2019-05-25T01:11:46.839Z,8.78
2019-05-25T01:12:53.700Z,9.33
2019-05-25T01:14:00.075Z,9.35
2019-05-25T01:15:08.854Z,9.13
2019-05-25T01:16:15.095Z,9.05
2019-05-25T01:17:22.107Z,8.73
2019-05-25T01:18:28.375Z,8.50
2019-05-25T01:19:35.185Z,8.73
2019-05-25T01:20:41.676Z,8.93
2019-05-25T01:21:48.445Z,8.83
2019-05-25T01:22:54.866Z,9.48
2019-05-25T01:24:01.875Z,9.28
2019-05-25T01:25:09.675Z,8.50
2019-05-25T01:26:16.674Z,9.75
2019-05-25T01:27:22.916Z,9.83
2019-05-25T01:28:29.819Z,9.33
2019-05-25T01:29:36.231Z,9.23
2019-05-25T01:30:43.075Z,9.08
2019-05-25T01:31:49.630Z,9.65
2019-05-25T01:32:56.145Z,8.75
2019-05-25T01:34:02.522Z,9.00
2019-05-25T01:35:09.635Z,9.00
2019-05-25T01:36:15.987Z,9.28
2019-05-25T01:37:22.816Z,8.65
2019-05-25T01:38:30.187Z,9.85
2019-05-25T01:39:37.083Z,9.63
2019-05-25T01:40:43.379Z,9.40
2019-05-25T01:41:50.195Z,9.28
2019-05-25T01:42:56.554Z,9.50
2019-05-25T01:44:03.357Z,9.20
2019-05-25T01:45:09.946Z,9.25
2019-05-25T01:46:16.808Z,9.45
2019-05-25T01:47:22.940Z,8.63
2019-05-25T01:48:29.947Z,10.50
2019-05-25T01:49:36.245Z,9.03
2019-05-25T01:50:43.495Z,9.25
2019-05-25T01:51:49.817Z,9.90
2019-05-25T01:52:56.703Z,9.95
2019-05-25T01:54:03.034Z,8.95
2019-05-25T01:55:10.147Z,9.73
2019-05-25T01:56:16.392Z,9.13
2019-05-25T01:57:23.297Z,10.23
2019-05-25T01:58:29.596Z,8.63
2019-05-25T01:59:36.605Z,10.28
2019-05-25T02:00:43.054Z,9.70
2019-05-25T02:01:49.923Z,9.93
2019-05-25T02:02:56.343Z,10.03
2019-05-25T02:04:03.252Z,9.90
2019-05-25T02:05:10.074Z,9.40
2019-05-25T02:06:16.977Z,9.80
2019-05-25T02:07:23.216Z,9.50
2019-05-25T02:08:29.954Z,9.38
2019-05-25T02:09:36.403Z,10.25
2019-05-25T02:10:43.392Z,10.80
2019-05-25T02:11:49.705Z,10.10
2019-05-25T02:12:56.686Z,9.70
2019-05-25T02:14:03.089Z,11.22
2019-05-25T02:15:11.533Z,10.93
2019-05-25T02:16:17.846Z,10.18
2019-05-25T02:17:24.693Z,10.55
2019-05-25T02:18:30.987Z,10.60
2019-05-25T02:19:37.967Z,10.88
2019-05-25T02:20:43.845Z,10.23
2019-05-25T02:21:53.595Z,10.72
2019-05-25T02:22:59.934Z,10.80
2019-05-25T02:24:06.965Z,10.63
2019-05-25T02:25:18.313Z,10.78
2019-05-25T02:26:22.549Z,11.10
2019-05-25T02:27:28.984Z,11.50
2019-05-25T02:28:35.886Z,10.18
2019-05-25T02:29:42.287Z,10.78
2019-05-25T02:30:49.218Z,10.58
2019-05-25T02:31:55.329Z,10.82
2019-05-25T02:33:02.087Z,10.93
2019-05-25T02:34:08.571Z,11.57
2019-05-25T02:35:25.377Z,11.63
2019-05-25T02:36:31.869Z,11.60
2019-05-25T02:37:38.826Z,12.05
2019-05-25T02:38:45.275Z,10.98
2019-05-25T02:39:52.257Z,11.03
2019-05-25T02:40:58.646Z,12.00
2019-05-25T02:42:05.615Z,11.03
2019-05-25T02:43:11.942Z,11.48
2019-05-25T02:44:18.914Z,11.65
2019-05-25T02:45:25.378Z,11.93
2019-05-25T02:46:32.118Z,10.82
2019-05-25T02:47:38.508Z,11.93
2019-05-25T02:48:45.323Z,11.90
2019-05-25T02:49:51.816Z,11.48
2019-05-25T02:50:58.766Z,11.40
2019-05-25T02:52:05.224Z,11.40
2019-05-25T02:53:12.193Z,11.88
2019-05-25T02:54:18.397Z,11.85
2019-05-25T02:55:34.551Z,11.75
2019-05-25T02:56:33.555Z,11.53
2019-05-25T02:57:40.461Z,11.48
2019-05-25T02:58:46.666Z,11.40
2019-05-25T02:59:53.574Z,11.65
2019-05-25T03:01:00.135Z,11.73
2019-05-25T03:02:07.073Z,12.13
2019-05-25T03:03:13.727Z,12.23
2019-05-25T03:04:20.796Z,11.20
2019-05-25T03:05:26.708Z,11.85
2019-05-25T03:06:35.044Z,12.00
2019-05-25T03:07:41.936Z,11.45
2019-05-25T03:08:49.967Z,12.28
2019-05-25T03:09:57.447Z,12.10
2019-05-25T03:11:04.556Z,12.60
2019-05-25T03:12:11.173Z,12.13
2019-05-25T03:13:19.103Z,12.05
2019-05-25T03:14:25.456Z,12.33
2019-05-25T03:15:32.395Z,12.55
2019-05-25T03:16:38.526Z,12.00
2019-05-25T03:17:45.125Z,11.45
2019-05-25T03:18:51.496Z,12.13
2019-05-25T03:19:58.416Z,12.55
2019-05-25T03:21:04.827Z,12.45
2019-05-25T03:22:11.575Z,11.83
2019-05-25T03:23:17.802Z,11.65
2019-05-25T03:24:24.698Z,11.65
2019-05-25T03:25:31.190Z,11.63
2019-05-25T03:26:38.228Z,12.55
2019-05-25T03:27:44.632Z,12.15
2019-05-25T03:28:51.443Z,11.55
2019-05-25T03:29:57.615Z,11.78
2019-05-25T03:31:04.480Z,12.47
2019-05-25T03:32:11.065Z,12.58
2019-05-25T03:33:18.191Z,12.07
2019-05-25T03:34:24.532Z,12.68
2019-05-25T03:35:31.516Z,12.80
2019-05-25T03:36:37.881Z,12.28
2019-05-25T03:37:45.014Z,12.45
2019-05-25T03:38:51.272Z,12.88
2019-05-25T03:39:58.092Z,12.20
2019-05-25T03:41:04.037Z,11.08
2019-05-25T03:42:10.819Z,11.83
2019-05-25T03:43:17.193Z,11.80
2019-05-25T03:44:24.144Z,12.93
2019-05-25T03:45:30.657Z,12.28
2019-05-25T03:46:37.455Z,12.55
2019-05-25T03:47:43.822Z,13.03
2019-05-25T03:48:50.794Z,12.70
2019-05-25T03:49:57.256Z,13.32
2019-05-25T03:51:04.267Z,12.35
2019-05-25T03:52:10.339Z,13.08
2019-05-25T03:53:18.161Z,13.53
2019-05-25T03:54:24.532Z,12.82
2019-05-25T03:55:31.498Z,12.75
2019-05-25T03:56:37.823Z,12.73
2019-05-25T03:57:45.292Z,12.68
2019-05-25T03:58:51.695Z,12.88
2019-05-25T03:59:58.646Z,12.80
2019-05-25T04:01:05.107Z,12.80
2019-05-25T04:02:12.037Z,12.23
2019-05-25T04:03:18.440Z,13.30
2019-05-25T04:04:25.495Z,12.60
2019-05-25T04:05:31.683Z,13.45
2019-05-25T04:06:38.604Z,12.58
2019-05-25T04:07:44.796Z,13.10
2019-05-25T04:08:51.762Z,12.18
2019-05-25T04:09:58.127Z,13.30
2019-05-25T04:11:06.147Z,13.10
2019-05-25T04:12:14.050Z,13.00
2019-05-25T04:13:23.784Z,13.43
2019-05-25T04:14:30.242Z,13.35
2019-05-25T04:15:37.300Z,13.00
2019-05-25T04:16:44.474Z,12.90
2019-05-25T04:17:51.616Z,12.65
2019-05-25T04:18:58.172Z,13.08
2019-05-25T04:20:06.024Z,12.78
2019-05-25T04:21:12.202Z,13.45
2019-05-25T04:22:19.941Z,12.58
2019-05-25T04:23:27.759Z,12.63
2019-05-25T04:24:35.099Z,13.32
2019-05-25T04:25:41.562Z,13.30
2019-05-25T04:26:48.321Z,13.72
2019-05-25T04:27:54.734Z,12.18
2019-05-25T04:29:01.914Z,12.40
2019-05-25T04:30:09.096Z,12.82
2019-05-25T04:31:16.050Z,12.82
2019-05-25T04:32:22.455Z,12.40
2019-05-25T04:33:50.708Z,12.18
2019-05-25T04:34:56.769Z,12.18
2019-05-25T04:36:03.863Z,12.50
2019-05-25T04:37:10.103Z,12.65
2019-05-25T04:38:16.874Z,11.85
2019-05-25T04:39:23.589Z,12.23
2019-05-25T04:40:30.497Z,11.78
2019-05-25T04:41:36.838Z,11.80
2019-05-25T04:42:43.704Z,11.15
2019-05-25T04:43:50.020Z,12.55
2019-05-25T04:44:56.977Z,12.00
2019-05-25T04:46:03.430Z,11.43
2019-05-25T04:47:24.340Z,11.63
2019-05-25T04:48:18.066Z,11.53
2019-05-25T04:49:25.391Z,11.60
2019-05-25T04:50:31.825Z,12.23
2019-05-25T04:51:38.665Z,10.48
2019-05-25T04:52:48.468Z,10.53
2019-05-25T04:53:55.406Z,10.75
2019-05-25T04:55:01.979Z,10.95
2019-05-25T04:56:09.400Z,10.25
2019-05-25T04:57:16.929Z,11.05
2019-05-25T04:58:24.143Z,10.30
2019-05-25T04:59:30.548Z,11.08
2019-05-25T05:00:37.278Z,10.20
2019-05-25T05:01:43.584Z,9.73
2019-05-25T05:02:50.436Z,10.03
2019-05-25T05:03:56.629Z,10.25
2019-05-25T05:05:03.553Z,10.10
2019-05-25T05:06:09.765Z,9.78
2019-05-25T05:07:16.540Z,9.88
2019-05-25T05:08:22.978Z,9.90
2019-05-25T05:09:29.489Z,9.75
2019-05-25T05:10:35.674Z,9.98
2019-05-25T05:11:42.635Z,9.80
2019-05-25T05:12:48.884Z,9.85
2019-05-25T05:13:55.828Z,9.23
2019-05-25T05:15:02.338Z,10.13
2019-05-25T05:16:09.277Z,10.15
2019-05-25T05:17:15.449Z,9.43
2019-05-25T05:18:22.192Z,8.88
2019-05-25T05:19:28.222Z,8.58
2019-05-25T05:20:34.985Z,8.85
2019-05-25T05:21:40.929Z,9.00
2019-05-25T05:22:47.739Z,9.50
2019-05-25T05:23:55.044Z,9.55
2019-05-25T05:25:01.992Z,9.00
2019-05-25T05:26:08.294Z,8.43
2019-05-25T05:27:15.073Z,8.45
2019-05-25T05:28:21.509Z,7.47
2019-05-25T05:29:28.301Z,8.30
2019-05-25T05:30:36.004Z,8.43
2019-05-25T05:31:42.935Z,7.97
2019-05-25T05:32:49.237Z,8.58
2019-05-25T05:33:55.939Z,7.70
2019-05-25T05:35:02.311Z,7.60
2019-05-25T05:36:10.669Z,8.18
2019-05-25T05:37:17.375Z,7.22
2019-05-25T05:38:25.283Z,8.48
2019-05-25T05:39:32.037Z,8.18
2019-05-25T05:40:39.529Z,8.08
2019-05-25T05:41:48.501Z,7.72
2019-05-25T05:42:58.069Z,7.90
2019-05-25T05:44:06.535Z,7.80
2019-05-25T05:45:13.346Z,7.17
2019-05-25T05:46:21.748Z,7.70
2019-05-25T05:47:29.810Z,7.42
2019-05-25T05:48:38.505Z,6.85
2019-05-25T05:49:46.241Z,7.28
2019-05-25T05:50:54.640Z,6.95
2019-05-25T05:52:04.335Z,6.90
2019-05-25T05:53:10.512Z,7.03
2019-05-25T05:54:18.173Z,6.65
2019-05-25T05:55:31.538Z,6.72
2019-05-25T05:56:39.548Z,6.78
2019-05-25T05:57:45.943Z,6.42
2019-05-25T05:58:52.865Z,6.50
2019-05-25T05:59:59.235Z,5.90
2019-05-25T06:01:06.287Z,6.08
2019-05-25T06:02:12.691Z,6.10
2019-05-25T06:03:19.756Z,5.47
2019-05-25T06:04:25.744Z,5.83
2019-05-25T06:05:32.663Z,6.45
2019-05-25T06:06:39.038Z,5.75
2019-05-25T06:07:45.936Z,5.47
2019-05-25T06:08:52.116Z,5.35
2019-05-25T06:09:58.997Z,5.37
2019-05-25T06:11:05.563Z,5.47
2019-05-25T06:12:12.514Z,5.50
2019-05-25T06:13:18.922Z,5.40
2019-05-25T06:14:25.927Z,6.03
2019-05-25T06:15:32.230Z,5.42
2019-05-25T06:16:39.254Z,5.47
2019-05-25T06:17:45.804Z,5.53
2019-05-25T06:18:52.632Z,5.33
2019-05-25T06:19:58.892Z,5.92
2019-05-25T06:21:05.686Z,4.53
2019-05-25T06:22:12.187Z,4.80
2019-05-25T06:23:20.154Z,4.70
2019-05-25T06:24:26.535Z,4.65
2019-05-25T06:25:33.489Z,4.65
2019-05-25T06:26:39.887Z,3.70
2019-05-25T06:27:46.655Z,4.83
2019-05-25T06:28:53.045Z,4.40
2019-05-25T06:30:00.026Z,4.60
2019-05-25T06:31:06.374Z,4.08
2019-05-25T06:32:13.178Z,4.50
2019-05-25T06:33:19.501Z,4.00
2019-05-25T06:34:26.475Z,4.10
2019-05-25T06:35:32.782Z,3.47
2019-05-25T06:36:39.670Z,3.87
2019-05-25T06:37:45.963Z,3.98
2019-05-25T06:38:52.979Z,3.67
2019-05-25T06:39:58.990Z,3.70
2019-05-25T06:41:08.617Z,4.17
2019-05-25T06:42:13.794Z,4.15
2019-05-25T06:43:20.799Z,3.85
2019-05-25T06:44:27.104Z,3.92
2019-05-25T06:45:34.035Z,3.40
2019-05-25T06:46:40.205Z,3.72
2019-05-25T06:47:48.113Z,3.58
2019-05-25T06:48:54.616Z,3.72
2019-05-25T06:50:01.536Z,3.72
2019-05-25T06:51:07.706Z,3.67
2019-05-25T06:52:14.648Z,3.98
2019-05-25T06:53:21.009Z,4.08
2019-05-25T06:54:27.859Z,3.22
2019-05-25T06:55:34.370Z,4.00
2019-05-25T06:56:41.466Z,3.25
2019-05-25T06:57:47.775Z,3.25
2019-05-25T06:58:55.744Z,3.30
2019-05-25T07:00:02.273Z,3.62
2019-05-25T07:01:09.238Z,3.50
2019-05-25T07:02:15.640Z,3.25
2019-05-25T07:03:22.555Z,3.58
2019-05-25T07:04:28.896Z,3.77
2019-05-25T07:05:35.777Z,3.72
2019-05-25T07:06:42.116Z,3.80
2019-05-25T07:07:49.219Z,3.80
2019-05-25T07:08:55.635Z,3.33
2019-05-25T07:10:02.560Z,3.05
2019-05-25T07:11:08.776Z,3.02
2019-05-25T07:12:15.735Z,3.55
2019-05-25T07:13:21.919Z,3.47
2019-05-25T07:14:28.804Z,3.47
2019-05-25T07:15:34.835Z,3.10
2019-05-25T07:16:41.547Z,3.33
2019-05-25T07:17:47.840Z,3.02
2019-05-25T07:18:54.587Z,3.22
2019-05-25T07:20:01.989Z,3.37
2019-05-25T07:21:08.800Z,3.20
2019-05-25T07:22:14.981Z,3.62
2019-05-25T07:23:22.081Z,3.37
2019-05-25T07:24:28.391Z,3.02
2019-05-25T07:25:35.124Z,3.90
2019-05-25T07:26:41.466Z,3.42
2019-05-25T07:27:58.886Z,2.72
2019-05-25T07:28:57.048Z,3.02
2019-05-25T07:30:03.963Z,3.12
2019-05-25T07:31:10.361Z,3.10
2019-05-25T07:32:17.126Z,3.17
2019-05-25T07:33:23.336Z,2.90
2019-05-25T07:34:30.347Z,2.58
2019-05-25T07:35:36.611Z,2.40
2019-05-25T07:36:43.617Z,3.12
2019-05-25T07:37:49.832Z,2.42
2019-05-25T07:38:56.358Z,3.20
2019-05-25T07:40:02.463Z,3.17
2019-05-25T07:41:09.618Z,2.72
2019-05-25T07:42:15.725Z,3.30
2019-05-25T07:43:22.482Z,3.15
2019-05-25T07:44:28.737Z,3.08
2019-05-25T07:45:35.585Z,3.00
2019-05-25T07:46:41.740Z,2.70
2019-05-25T07:47:48.575Z,3.10
2019-05-25T07:48:54.856Z,2.62
2019-05-25T07:50:02.184Z,2.85
2019-05-25T07:51:08.228Z,2.40
2019-05-25T07:52:14.892Z,3.10
2019-05-25T07:53:21.150Z,2.60
2019-05-25T07:54:27.967Z,2.50
2019-05-25T07:55:34.335Z,2.70
2019-05-25T07:56:41.329Z,3.10
2019-05-25T07:57:47.646Z,3.15
2019-05-25T07:58:54.727Z,2.83
2019-05-25T08:00:01.268Z,2.77
2019-05-25T08:01:08.502Z,2.67
2019-05-25T08:02:14.869Z,2.70
2019-05-25T08:03:21.435Z,2.70
2019-05-25T08:04:27.688Z,2.72
2019-05-25T08:05:34.661Z,2.40
2019-05-25T08:06:40.948Z,2.58
2019-05-25T08:07:47.917Z,2.72
2019-05-25T08:08:54.273Z,2.58
2019-05-25T08:10:01.247Z,2.70
2019-05-25T08:11:07.645Z,2.75
2019-05-25T08:12:14.625Z,2.90
2019-05-25T08:13:20.935Z,2.55
2019-05-25T08:14:28.042Z,2.62
2019-05-25T08:15:34.004Z,2.40
2019-05-25T08:16:40.895Z,2.65
2019-05-25T08:17:48.302Z,2.60
2019-05-25T08:18:55.272Z,2.35
2019-05-25T08:20:01.624Z,2.25
2019-05-25T08:21:08.540Z,2.10
2019-05-25T08:22:14.750Z,2.58
2019-05-25T08:23:21.572Z,2.83
2019-05-25T08:24:28.006Z,2.37
2019-05-25T08:25:34.992Z,2.37
2019-05-25T08:26:41.455Z,2.20
2019-05-25T08:27:48.368Z,2.45
2019-05-25T08:28:54.724Z,2.20
2019-05-25T08:30:01.603Z,2.47
2019-05-25T08:31:07.859Z,2.20
2019-05-25T08:32:14.737Z,2.10
2019-05-25T08:33:20.976Z,2.47
2019-05-25T08:34:27.946Z,2.10
2019-05-25T08:35:34.346Z,2.05
2019-05-25T08:36:41.235Z,2.00
2019-05-25T08:37:47.709Z,2.02
2019-05-25T08:38:55.005Z,2.10
2019-05-25T08:40:01.438Z,1.90
2019-05-25T08:41:08.445Z,2.10
2019-05-25T08:42:14.646Z,2.10
2019-05-25T08:43:21.469Z,2.00
2019-05-25T08:44:27.777Z,2.27
2019-05-25T08:45:34.731Z,2.27
2019-05-25T08:46:41.324Z,1.85
2019-05-25T08:47:48.255Z,2.00
2019-05-25T08:48:54.525Z,1.98
2019-05-25T08:50:01.398Z,2.67
2019-05-25T08:51:07.372Z,2.20
2019-05-25T08:52:14.425Z,2.22
2019-05-25T08:53:31.212Z,2.08
2019-05-25T08:54:29.136Z,1.95
2019-05-25T08:55:35.434Z,2.52
2019-05-25T08:56:42.372Z,2.58
2019-05-25T08:57:48.735Z,2.30
2019-05-25T08:58:55.806Z,2.25
2019-05-25T09:00:02.007Z,2.05
2019-05-25T09:01:09.135Z,2.27
2019-05-25T09:02:15.366Z,2.50
2019-05-25T09:03:23.292Z,2.47
2019-05-25T09:04:29.675Z,2.25
2019-05-25T09:05:37.014Z,1.95
2019-05-25T09:06:43.414Z,2.12
2019-05-25T09:07:50.326Z,2.25
2019-05-25T09:08:56.563Z,2.27
2019-05-25T09:10:03.355Z,1.98
2019-05-25T09:11:09.765Z,2.02
2019-05-25T09:12:17.826Z,2.62
2019-05-25T09:13:24.110Z,2.27
2019-05-25T09:14:30.978Z,2.20
2019-05-25T09:15:37.054Z,2.35
2019-05-25T09:16:43.954Z,2.62
2019-05-25T09:17:50.322Z,2.30
2019-05-25T09:18:57.168Z,2.12
2019-05-25T09:20:03.694Z,2.17
2019-05-25T09:21:10.614Z,2.35
2019-05-25T09:22:16.794Z,2.45
2019-05-25T09:23:23.734Z,2.20
2019-05-25T09:24:30.109Z,2.15
2019-05-25T09:25:37.131Z,2.50
2019-05-25T09:26:43.165Z,2.00
2019-05-25T09:27:50.094Z,2.87
2019-05-25T09:29:04.531Z,2.55
2019-05-25T09:30:05.634Z,2.50
2019-05-25T09:31:11.902Z,2.10
2019-05-25T09:32:18.741Z,2.37
2019-05-25T09:33:26.178Z,2.40
2019-05-25T09:34:33.136Z,2.20
2019-05-25T09:35:39.521Z,2.55
2019-05-25T09:36:46.365Z,2.42
2019-05-25T09:37:52.328Z,2.50
2019-05-25T09:38:58.859Z,2.42
2019-05-25T09:40:05.732Z,2.40
2019-05-25T09:41:12.725Z,2.45
2019-05-25T09:42:19.090Z,2.10
2019-05-25T09:43:25.976Z,2.00
2019-05-25T09:44:32.480Z,2.30
2019-05-25T09:45:39.453Z,2.30
2019-05-25T09:46:45.658Z,2.37
2019-05-25T09:47:52.522Z,2.45
2019-05-25T09:48:58.736Z,2.42
2019-05-25T09:50:05.687Z,2.22
2019-05-25T09:51:15.766Z,2.30
2019-05-25T09:52:20.532Z,2.20
2019-05-25T09:53:26.895Z,2.42
2019-05-25T09:54:33.757Z,2.05
2019-05-25T09:55:40.117Z,2.30
2019-05-25T09:56:47.181Z,2.08
2019-05-25T09:57:53.676Z,2.30
2019-05-25T09:59:00.655Z,2.30
2019-05-25T10:00:08.945Z,2.60
2019-05-25T10:01:16.721Z,2.60
2019-05-25T10:02:22.910Z,2.40
2019-05-25T10:03:29.713Z,2.80
2019-05-25T10:04:36.160Z,2.35
2019-05-25T10:05:42.976Z,2.50
2019-05-25T10:06:49.299Z,2.40
2019-05-25T10:07:56.360Z,2.60
2019-05-25T10:09:02.852Z,2.20
2019-05-25T10:10:12.338Z,2.50
2019-05-25T10:11:18.722Z,2.52
2019-05-25T10:12:25.592Z,2.90
2019-05-25T10:13:31.953Z,2.77
2019-05-25T10:14:38.896Z,2.80
2019-05-25T10:15:45.153Z,2.42
2019-05-25T10:16:53.098Z,2.50
2019-05-25T10:17:59.511Z,2.60
2019-05-25T10:19:06.486Z,2.85
2019-05-25T10:20:14.342Z,2.45
2019-05-25T10:21:21.167Z,2.50
2019-05-25T10:22:27.496Z,2.40
2019-05-25T10:23:34.482Z,2.95
2019-05-25T10:24:40.857Z,3.15
2019-05-25T10:25:47.871Z,3.00
2019-05-25T10:26:54.344Z,2.75
2019-05-25T10:28:01.363Z,2.80
2019-05-25T10:29:07.715Z,2.70
2019-05-25T10:30:14.935Z,2.90
2019-05-25T10:31:21.149Z,3.02
2019-05-25T10:32:28.016Z,2.58
2019-05-25T10:33:35.286Z,2.80
2019-05-25T10:34:42.114Z,2.83
2019-05-25T10:35:48.156Z,2.90
2019-05-25T10:36:54.967Z,2.90
2019-05-25T10:38:01.143Z,2.95
2019-05-25T10:39:09.998Z,2.55
2019-05-25T10:40:16.350Z,2.65
2019-05-25T10:41:23.171Z,2.70
2019-05-25T10:42:29.386Z,2.90
2019-05-25T10:43:37.507Z,2.95
2019-05-25T10:44:43.743Z,3.27
2019-05-25T10:45:50.713Z,2.80
2019-05-25T10:46:57.011Z,2.80
2019-05-25T10:48:04.508Z,2.67
2019-05-25T10:49:11.830Z,2.45
2019-05-25T10:50:19.328Z,3.05
2019-05-25T10:51:25.942Z,3.35
2019-05-25T10:52:32.730Z,2.83
2019-05-25T10:53:38.991Z,3.00
2019-05-25T10:54:45.982Z,2.20
2019-05-25T10:55:52.375Z,2.95
2019-05-25T10:56:59.269Z,2.58
2019-05-25T10:58:06.044Z,2.50
2019-05-25T10:59:12.821Z,2.60
2019-05-25T11:00:19.376Z,2.57
2019-05-25T11:01:26.392Z,3.40
2019-05-25T11:02:32.868Z,2.80
2019-05-25T11:03:39.811Z,3.27
2019-05-25T11:04:46.195Z,2.67
2019-05-25T11:05:53.137Z,2.80
2019-05-25T11:06:59.358Z,3.07
2019-05-25T11:08:06.366Z,3.37
2019-05-25T11:09:12.835Z,3.10
2019-05-25T11:10:20.173Z,3.27
2019-05-25T11:11:26.193Z,2.73
2019-05-25T11:12:33.168Z,2.80
2019-05-25T11:13:39.557Z,2.70
2019-05-25T11:14:46.499Z,2.73
2019-05-25T11:15:52.987Z,2.77
2019-05-25T11:16:59.963Z,2.53
2019-05-25T11:18:06.279Z,2.60
2019-05-25T11:19:13.294Z,2.57
2019-05-25T11:20:19.797Z,2.30
2019-05-25T11:21:26.656Z,2.20
2019-05-25T11:22:33.125Z,2.57
2019-05-25T11:23:40.102Z,2.37
2019-05-25T11:24:46.408Z,2.60
2019-05-25T11:25:53.231Z,2.53
2019-05-25T11:26:59.798Z,2.20
2019-05-25T11:28:08.411Z,2.17
2019-05-25T11:29:14.706Z,2.10
2019-05-25T11:30:23.433Z,2.20
2019-05-25T11:31:29.919Z,2.30
2019-05-25T11:32:36.881Z,1.93
2019-05-25T11:33:43.257Z,2.27
2019-05-25T11:34:49.899Z,2.40
2019-05-25T11:35:56.163Z,2.47
2019-05-25T11:37:03.012Z,2.60
2019-05-25T11:38:09.223Z,2.20
2019-05-25T11:39:16.128Z,2.10
2019-05-25T11:40:23.634Z,2.47
2019-05-25T11:41:30.461Z,2.57
2019-05-25T11:42:36.679Z,2.40
2019-05-25T11:43:43.636Z,2.23
2019-05-25T11:44:50.087Z,2.20
2019-05-25T11:45:57.136Z,2.60
2019-05-25T11:47:03.332Z,2.20
2019-05-25T11:48:10.225Z,2.37
2019-05-25T11:49:22.486Z,2.67
2019-05-25T11:50:25.479Z,2.63
2019-05-25T11:51:31.755Z,2.50
2019-05-25T11:52:38.947Z,2.30
2019-05-25T11:53:45.703Z,2.20
2019-05-25T11:54:52.536Z,2.40
2019-05-25T11:55:58.863Z,2.60
2019-05-25T11:57:05.944Z,2.40
2019-05-25T11:58:12.302Z,2.20
2019-05-25T11:59:18.855Z,1.90
2019-05-25T12:00:26.194Z,2.10
2019-05-25T12:01:33.119Z,2.10
2019-05-25T12:02:39.516Z,2.40
2019-05-25T12:03:46.346Z,2.20
2019-05-25T12:04:52.667Z,2.30
2019-05-25T12:05:59.819Z,2.70
2019-05-25T12:07:06.376Z,2.53
2019-05-25T12:08:13.155Z,2.40
2019-05-25T12:09:19.429Z,2.27
2019-05-25T12:10:26.039Z,2.03
2019-05-25T12:11:32.302Z,2.50
2019-05-25T12:12:39.154Z,2.30
2019-05-25T12:13:45.510Z,2.53
2019-05-25T12:14:52.435Z,2.60
2019-05-25T12:15:58.764Z,2.70
2019-05-25T12:17:05.713Z,2.70
2019-05-25T12:18:12.142Z,2.40
2019-05-25T12:19:19.170Z,2.27
2019-05-25T12:20:25.571Z,2.87
2019-05-25T12:21:32.315Z,2.57
2019-05-25T12:22:38.312Z,2.70
2019-05-25T12:23:45.160Z,3.00
2019-05-25T12:24:51.533Z,3.07
2019-05-25T12:25:58.652Z,2.60
2019-05-25T12:27:05.182Z,3.40
2019-05-25T12:28:12.074Z,3.30
2019-05-25T12:29:18.468Z,3.60
2019-05-25T12:30:39.827Z,3.67
2019-05-25T12:31:33.312Z,3.53
2019-05-25T12:32:40.267Z,3.93
2019-05-25T12:33:46.136Z,4.00
2019-05-25T12:34:53.165Z,4.20
2019-05-25T12:35:59.343Z,4.27
2019-05-25T12:37:06.424Z,4.60
2019-05-25T12:38:13.043Z,4.17
2019-05-25T12:39:19.795Z,4.70
2019-05-25T12:40:26.357Z,3.80
2019-05-25T12:41:33.267Z,4.53
2019-05-25T12:42:39.432Z,4.17
2019-05-25T12:43:46.385Z,4.50
2019-05-25T12:44:53.843Z,4.50
2019-05-25T12:46:00.444Z,3.90
2019-05-25T12:47:07.062Z,4.10
2019-05-25T12:48:13.969Z,4.33
2019-05-25T12:49:20.412Z,4.10
2019-05-25T12:50:27.268Z,3.90
2019-05-25T12:51:33.686Z,3.97
2019-05-25T12:52:40.574Z,4.00
2019-05-25T12:53:47.008Z,3.80
2019-05-25T12:54:54.087Z,3.70
2019-05-25T12:56:00.510Z,4.33
2019-05-25T12:57:07.370Z,3.77
2019-05-25T12:58:13.733Z,3.70
2019-05-25T12:59:20.656Z,5.17
2019-05-25T13:00:27.175Z,3.97
2019-05-25T13:01:34.281Z,4.23
2019-05-25T13:02:40.749Z,4.70
2019-05-25T13:03:47.622Z,5.00
2019-05-25T13:04:53.909Z,4.60
2019-05-25T13:06:00.829Z,4.30
2019-05-25T13:07:08.034Z,4.00
2019-05-25T13:08:15.048Z,4.13
2019-05-25T13:09:21.071Z,4.27
2019-05-25T13:10:27.869Z,5.27
2019-05-25T13:11:34.351Z,4.90
2019-05-25T13:12:41.214Z,4.70
2019-05-25T13:13:47.643Z,4.40
2019-05-25T13:14:54.548Z,5.00
2019-05-25T13:16:00.745Z,5.37
2019-05-25T13:17:07.581Z,5.30
2019-05-25T13:18:14.189Z,5.77
2019-05-25T13:19:21.161Z,5.40
2019-05-25T13:20:27.784Z,5.13
2019-05-25T13:21:36.123Z,5.73
2019-05-25T13:22:42.333Z,5.43
2019-05-25T13:23:51.593Z,4.70
2019-05-25T13:24:58.176Z,6.17
2019-05-25T13:26:08.478Z,6.10
2019-05-25T13:27:15.519Z,6.40
2019-05-25T13:28:24.783Z,6.07
2019-05-25T13:29:32.001Z,5.40
2019-05-25T13:30:44.529Z,5.50
2019-05-25T13:31:52.110Z,5.43
2019-05-25T13:33:01.895Z,6.20
2019-05-25T13:34:10.725Z,6.17
2019-05-25T13:35:20.197Z,5.40
2019-05-25T13:36:30.573Z,6.37
2019-05-25T13:37:44.472Z,5.23
2019-05-25T13:38:55.036Z,5.90
2019-05-25T13:40:03.137Z,4.93
2019-05-25T13:41:12.203Z,4.57
2019-05-25T13:42:19.541Z,6.67
2019-05-25T13:43:26.128Z,5.67
2019-05-25T13:44:35.300Z,5.80
2019-05-25T13:45:45.944Z,6.70
2019-05-25T13:46:52.563Z,6.17
2019-05-25T13:48:01.476Z,6.87
2019-05-25T13:49:09.754Z,6.93
2019-05-25T13:50:17.450Z,6.37
2019-05-25T13:51:25.382Z,7.13
2019-05-25T13:52:32.811Z,6.80
2019-05-25T13:53:39.995Z,6.57
2019-05-25T13:54:46.609Z,6.60
2019-05-25T13:55:54.716Z,5.50
2019-05-25T13:57:05.591Z,6.57
2019-05-25T13:58:13.226Z,6.47
2019-05-25T13:59:20.243Z,6.67
2019-05-25T14:00:28.993Z,7.57
2019-05-25T14:01:35.868Z,6.50
2019-05-25T14:02:42.724Z,6.40
2019-05-25T14:03:49.017Z,6.17
2019-05-25T14:04:55.826Z,6.63
2019-05-25T14:06:02.037Z,6.77
2019-05-25T14:07:08.860Z,6.40
2019-05-25T14:08:15.145Z,6.97
2019-05-25T14:09:22.086Z,6.67
2019-05-25T14:10:28.784Z,6.63
2019-05-25T14:11:35.681Z,6.60
2019-05-25T14:12:41.890Z,6.90
2019-05-25T14:13:48.728Z,6.00
2019-05-25T14:14:55.115Z,5.77
2019-05-25T14:16:07.017Z,6.50
2019-05-25T14:17:10.030Z,6.27
2019-05-25T14:18:17.007Z,6.20
2019-05-25T14:19:23.434Z,5.83
2019-05-25T14:20:30.301Z,5.87
2019-05-25T14:21:36.606Z,6.90
2019-05-25T14:22:43.171Z,5.80
2019-05-25T14:23:49.577Z,6.07
2019-05-25T14:24:56.460Z,5.53
2019-05-25T14:26:03.078Z,5.50
2019-05-25T14:27:09.939Z,6.03
2019-05-25T14:28:16.375Z,7.10
2019-05-25T14:29:26.165Z,6.93
2019-05-25T14:30:31.345Z,8.73
2019-05-25T14:31:45.612Z,8.17
2019-05-25T14:32:46.029Z,6.23
2019-05-25T14:33:52.926Z,5.70
2019-05-25T14:34:59.271Z,4.80
2019-05-25T14:36:06.176Z,6.60
2019-05-25T14:37:12.268Z,6.00
2019-05-25T14:38:19.148Z,4.80
2019-05-25T14:39:25.379Z,4.70
2019-05-25T14:40:32.194Z,4.67
2019-05-25T14:41:38.436Z,4.30
2019-05-25T14:42:45.532Z,5.37
2019-05-25T14:43:52.052Z,5.37
2019-05-25T14:44:58.673Z,5.00